Home > Products > Valid Products > MTR

000
SAUS44 KLIX 201252
MTRBVE
METAR KBVE 201251Z AUTO 01008G19KT 10SM BKN006 OVC010 13/12 A3008
RMK AO2 SLP186 T01280117





000
SAUS44 KLIX 201153
MTRBVE
METAR KBVE 201151Z AUTO 02011G23KT 10SM OVC007 12/11 A3006 RMK AO2
RAE1058 SLP178 P0000 60032 70082 T01220111 10156 20117 53014





000
SAUS44 KLIX 201110
MTRBVE
SPECI KBVE 201109Z AUTO 02010G19KT 360V070 10SM BKN006 OVC050 12/12
A3004 RMK AO2 RAE1058 P0000 T01220117





000
SAUS44 KLIX 201059
MTRBVE
SPECI KBVE 201058Z AUTO 03013G22KT 10SM SCT005 BKN041 OVC050 12/11
A3002 RMK AO2 RAE58 P0000 T01220111





000
SAUS44 KLIX 201056 COR
MTRBVE
METAR KBVE 201051Z AUTO 03013G21KT 7SM -RA SCT005 BKN021 OVC050
12/12 A3002 RMK AO2 SLP166 P0008 T01170117





000
SAUS44 KLIX 201053 COR
MTRBVE
METAR KBVE 201051Z AUTO 03013G21KT 7SM -RA SCT005 BKN021 OVC050
12/12 A3002 RMK AO2 SLP166 P0008 T01170117





000
SAUS44 KLIX 201018 COR
MTRBVE
SPECI KBVE 201015Z AUTO 02011G18KT 3SM RA BR SCT005 BKN021 OVC035
12/12 A3003 RMK AO2 P0006 T01220117





000
SAUS44 KLIX 201017 COR
MTRBVE
SPECI KBVE 201015Z AUTO 02011G18KT 3SM RA BR SCT005 BKN021 OVC035
12/12 A3003 RMK AO2 P0006 T01220117





000
SAUS44 KLIX 201011 COR
MTRBVE
SPECI KBVE 201007Z AUTO 02010G19KT 2 1/2SM -RA BR SCT005 BKN024
OVC032 12/12 A3003 RMK AO2 P0004 T01220117





000
SAUS44 KLIX 201009 COR
MTRBVE
SPECI KBVE 201007Z AUTO 02010G19KT 2 1/2SM -RA BR SCT005 BKN024
OVC032 12/12 A3003 RMK AO2 P0004 T01220117





000
SAUS44 KLIX 200952
MTRBVE
METAR KBVE 200951Z AUTO 36010G18KT 4SM -RA BR SCT005 BKN022 OVC030
12/12 A3003 RMK AO2 SLP167 P0014 T01220122





000
SAUS44 KLIX 200948
MTRBVE
SPECI KBVE 200947Z AUTO 01010G22KT 3SM RA BR SCT005 BKN024 OVC030
12/12 A3002 RMK AO2 P0014





000
SAUS44 KLIX 200944
MTRBVE
SPECI KBVE 200942Z AUTO 01012G22KT 3SM -RA BR BKN005 BKN015 OVC030
12/12 A3002 RMK AO2 P0013 T01220122





000
SAUS44 KLIX 200932
MTRBVE
SPECI KBVE 200931Z AUTO 35010G19KT 2SM +RA BR BKN005 BKN013 OVC029
13/12 A3003 RMK AO2 P0011 T01280122





000
SAUS44 KLIX 200929
MTRBVE
SPECI KBVE 200928Z AUTO 36010G19KT 2SM +RA BR SCT005 BKN015 OVC025
13/12 A3002 RMK AO2 P0009 T01280122





000
SAUS44 KLIX 200909
MTRBVE
SPECI KBVE 200908Z AUTO 34015G23KT 3SM RA BR BKN005 BKN009 OVC014
13/13 A3002 RMK AO2 P0003 T01280128





000
SAUS44 KLIX 200852
MTRBVE
METAR KBVE 200851Z AUTO 35011G20KT 2SM RA BR BKN005 OVC010 14/13
A3002 RMK AO2 RAE01B03 SLP164 P0005 60010 T01390133 55002





000
SAUS44 KLIX 200849
MTRBVE
SPECI KBVE 200848Z AUTO 36010G22KT 2SM +RA BR BKN005 OVC010 14/13
A3001 RMK AO2 RAE01B03 P0004





000
SAUS44 KLIX 200840
MTRBVE
SPECI KBVE 200839Z AUTO 33014G20KT 4SM -RA BR BKN003 OVC012 14/13
A3001 RMK AO2 RAE01B03 P0002 T01390133





000
SAUS44 KLIX 200801
MTRBVE
SPECI KBVE 200801Z AUTO 04007KT 6SM BR FEW005 OVC012 14/14 A3000 RMK
AO2 RAE01 P0000 T01440139





000
SAUS44 KLIX 200801
MTRBVE
SPECI KBVE 200801Z AUTO 04007KT 6SM BR FEW005 OVC012 14/14 A3000 RMK
AO2 RAE01 P0000 T01440139





000
SAUS44 KLIX 200752
MTRBVE
METAR KBVE 200751Z AUTO 04008KT 6SM -RA BR OVC012 14/14 A3000 RMK
AO2 SLP160 P0002 T01440139





000
SAUS44 KLIX 200752
MTRBVE
METAR KBVE 200751Z AUTO 04008KT 6SM -RA BR OVC012 14/14 A3000 RMK
AO2 SLP160 P0002 T01440139





000
SAUS44 KLIX 200656 COR
MTRBVE
METAR KBVE 200651Z AUTO 01006KT 9SM -RA OVC012 14/14 A3001 RMK AO2
PK WND 27030/0609 WSHFT 0606 RAB09 SLP163 P0003 T01440139





000
SAUS44 KLIX 200653 COR
MTRBVE
METAR KBVE 200651Z AUTO 01006KT 9SM -RA OVC012 14/14 A3001 RMK AO2
PK WND 27030/0609 WSHFT 0606 RAB09 SLP163 P0003 T01440139





000
SAUS44 KLIX 200639 COR
MTRBVE
SPECI KBVE 200636Z AUTO 36006KT 7SM -RA SCT006 BKN012 OVC032 15/14
A3002 RMK AO2 PK WND 27030/0609 WSHFT 0606 RAB09 P0003 T01500139





000
SAUS44 KLIX 200638 COR
MTRBVE
SPECI KBVE 200636Z AUTO 36006KT 7SM -RA SCT006 BKN012 OVC032 15/14
A3002 RMK AO2 PK WND 27030/0609 WSHFT 0606 RAB09 P0003 T01500139





000
SAUS44 KLIX 200627
MTRBVE
SPECI KBVE 200626Z AUTO 03012G21KT 4SM RA BR BKN005 BKN011 OVC030
15/14 A3001 RMK AO2 PK WND 27030/0609 WSHFT 0606 RAB09 P0002
T01500144





000
SAUS44 KLIX 200558 COR
MTRBVE
METAR KBVE 200551Z AUTO 04007KT 6SM BR BKN005 OVC010 15/14 A3002 RMK
AO2 RAE0455 SLP166 P0000 60000 T01500144 10150 20139 401720139 56009





000
SAUS44 KLIX 200557 COR
MTRBVE
METAR KBVE 200551Z AUTO 04007KT 6SM BR BKN005 OVC010 15/14 A3002 RMK
AO2 RAE0455 SLP166 P0000 60000 T01500144 10150 20139 401720139 56009





000
SAUS44 KLIX 200556 COR
MTRBVE
METAR KBVE 200551Z AUTO 04007KT 6SM BR BKN005 OVC010 15/14 A3002 RMK
AO2 RAE0455 SLP166 P0000 60000 T01500144 10150 20139 401720139 56009





000
SAUS44 KLIX 200553 COR
MTRBVE
METAR KBVE 200551Z AUTO 04007KT 6SM BR BKN005 OVC010 15/14 A3002 RMK
AO2 RAE0455 SLP166 P0000 60000 T01500144 10150 20139 401720139 56009





000
SAUS44 KLIX 200529
MTRBVE
SPECI KBVE 200528Z AUTO 05008KT 5SM BR SCT005 OVC011 15/14 A3003 RMK
AO2 RAE0455 P0000 T01500144





000
SAUS44 KLIX 200453
MTRBVE
METAR KBVE 200451Z AUTO 05008KT 6SM -RA BR OVC012 15/14 A3004 RMK
AO2 RAB45 SLP171 P0000 T01500144





000
SAUS44 KLIX 200441
MTRBVE
SPECI KBVE 200440Z AUTO 05007KT 6SM BR OVC010 15/14 A3004 RMK AO2
CIG 006V015 T01500144





000
SAUS44 KLIX 200352
MTRBVE
METAR KBVE 200351Z AUTO 05009KT 7SM OVC006 15/14 A3005 RMK AO2
SLP175 T01500144





000
SAUS44 KLIX 200352
MTRBVE
METAR KBVE 200351Z AUTO 05009KT 7SM OVC006 15/14 A3005 RMK AO2
SLP175 T01500144





000
SAUS44 KLIX 200329
MTRBVE
SPECI KBVE 200328Z AUTO 04008KT 7SM BKN007 OVC014 15/14 A3005 RMK
AO2 T01500144





000
SAUS44 KLIX 200306
MTRBVE
SPECI KBVE 200305Z AUTO 05009KT 7SM SCT006 OVC014 15/14 A3005 RMK
AO2 T01500144





000
SAUS44 KLIX 200253
MTRBVE
METAR KBVE 200251Z AUTO 05009KT 7SM BKN006 OVC018 15/14 A3005 RMK
AO2 SLP176 60000 T01500144 53001





000
SAUS44 KLIX 200244
MTRBVE
SPECI KBVE 200243Z AUTO 06008KT 6SM BR BKN005 OVC018 15/14 A3005 RMK
AO2 T01500144





000
SAUS44 KLIX 200235
MTRBVE
SPECI KBVE 200234Z AUTO 05009KT 6SM BR SCT005 BKN018 OVC055 15/14
A3005 RMK AO2 T01500144





000
SAUS44 KLIX 200225
MTRBVE
SPECI KBVE 200224Z AUTO 06010KT 7SM BKN018 BKN055 15/14 A3005 RMK
AO2 T01500144





000
SAUS44 KLIX 200213
MTRBVE
SPECI KBVE 200212Z AUTO 05008KT 8SM SCT011 SCT018 BKN055 14/14 A3004
RMK AO2 T01440139





000
SAUS44 KLIX 200152
MTRBVE
METAR KBVE 200151Z AUTO 04008KT 8SM OVC011 14/14 A3004 RMK AO2
SLP173 T01440139





000
SAUS44 KLIX 200152
MTRBVE
METAR KBVE 200151Z AUTO 04008KT 8SM OVC011 14/14 A3004 RMK AO2
SLP173 T01440139





000
SAUS44 KLIX 200140
MTRBVE
SPECI KBVE 200139Z AUTO 04010KT 9SM BKN011 BKN120 14/14 A3004 RMK
AO2 T01440139





000
SAUS44 KLIX 200140
MTRBVE
SPECI KBVE 200139Z AUTO 04010KT 9SM BKN011 BKN120 14/14 A3004 RMK
AO2 T01440139





000
SAUS44 KLIX 200118
MTRBVE
SPECI KBVE 200117Z AUTO 04008KT 9SM FEW012 SCT022 BKN120 14/13 A3005
RMK AO2 T01390133





000
SAUS44 KLIX 200118
MTRBVE
SPECI KBVE 200117Z AUTO 04008KT 9SM FEW012 SCT022 BKN120 14/13 A3005
RMK AO2 T01390133





000
SAUS44 KLIX 200108
MTRBVE
SPECI KBVE 200107Z AUTO 05010G16KT 9SM FEW005 SCT011 BKN022 14/13
A3004 RMK AO2 T01390133





000
SAUS44 KLIX 200052
MTRBVE
METAR KBVE 200051Z AUTO 04009KT 9SM FEW005 BKN010 OVC022 14/13 A3005
RMK AO2 RAB2352E03B09E18 SLP175 P0000 T01390133





000
SAUS44 KLIX 200009
MTRBVE
SPECI KBVE 200007Z AUTO 04010KT 10SM BKN011 BKN021 14/14 A3005 RMK
AO2 RAB2352E03 P0000 T01390139





000
SAUS44 KLIX 200001
MTRBVE
SPECI KBVE 200000Z AUTO 04009KT 10SM -RA BKN009 BKN014 14/13 A3004
RMK AO2 RAB2352 P0000 T01390133





000
SAUS44 KLIX 192353
MTRBVE
METAR KBVE 192351Z AUTO 04008KT 9SM SCT009 OVC015 14/14 A3005 RMK
AO2 SLP175 60040 T01390139 10161 20139 53007





000
SAUS44 KLIX 192334
MTRBVE
SPECI KBVE 192333Z AUTO 03009KT 7SM FEW003 BKN017 OVC075 14/14 A3004
RMK AO2 T01440139





000
SAUS44 KLIX 192321
MTRBVE
SPECI KBVE 192320Z AUTO 04007KT 6SM BR FEW002 SCT055 OVC070 14/14
A3004 RMK AO2 T01440144





000
SAUS44 KLIX 192253
MTRBVE
METAR KBVE 192251Z AUTO 01005KT 5SM BR FEW013 OVC070 15/14 A3003 RMK
AO2 RAE2157B06E51 SLP170 P0001 T01500144





000
SAUS44 KLIX 192244
MTRBVE
SPECI KBVE 192243Z AUTO VRB05KT 3SM -RA BR FEW007 BKN070 OVC080
15/14 A3003 RMK AO2 RAE2157B06 P0001 T01500144





000
SAUS44 KLIX 192235
MTRBVE
SPECI KBVE 192233Z AUTO 36005KT 1 3/4SM -RA BR SCT009 OVC075 14/14
A3003 RMK AO2 RAE2157B06 P0000 T01440144





000
SAUS44 KLIX 192228
MTRBVE
SPECI KBVE 192226Z AUTO 35006KT 3/4SM -RA BR BKN009 OVC070 15/14
A3003 RMK AO2 RAE2157B06 P0000 T01500144





000
SAUS44 KLIX 192216
MTRBVE
SPECI KBVE 192215Z AUTO 35005KT 1 3/4SM -RA BR BKN009 BKN013 OVC042
15/14 A3003 RMK AO2 RAE2157B06 P0000 T01500144





000
SAUS44 KLIX 192200
MTRBVE
SPECI KBVE 192158Z AUTO 00000KT 3SM BR BKN007 BKN016 OVC047 15/15
A3003 RMK AO2 RAE57 P0000 T01500150





000
SAUS44 KLIX 192149
MTRBVE
METAR KBVE 192148Z AUTO 33005KT 2SM -RA BR BKN007 BKN011 OVC044
15/15 A3003 RMK AO2 SLP169 P0012 T01500150





000
SAUS44 KLIX 192136
MTRBVE
SPECI KBVE 192135Z AUTO 34005KT 1 3/4SM RA BR SCT006 BKN014 OVC036
15/15 A3003 RMK AO2 P0010 T01500150





000
SAUS44 KLIX 192116
MTRBVE
SPECI KBVE 192115Z AUTO 33006KT 1 3/4SM RA BR BKN004 OVC034 16/15
A3004 RMK AO2 P0002 T01560150





000
SAUS44 KLIX 192104
MTRBVE
SPECI KBVE 192103Z AUTO 32005KT 3SM -RA BR BKN004 BKN011 OVC037
16/16 A3004 RMK AO2 P0001 T01610156





000
SAUS44 KLIX 192059
MTRBVE
SPECI KBVE 192058Z AUTO 33003KT 2SM -RA BR FEW004 BKN019 OVC037
16/16 A3003 RMK AO2 P0001 T01610156





000
SAUS44 KLIX 192052
MTRBVE
METAR KBVE 192051Z AUTO 31003KT 1 1/4SM RA BR FEW011 BKN016 OVC037
16/16 A3003 RMK AO2 SLP168 P0013 60027 T01610156 56017





000
SAUS44 KLIX 192031
MTRBVE
SPECI KBVE 192030Z AUTO 00000KT 1SM +RA BR FEW008 BKN015 OVC023
16/15 A3003 RMK AO2 P0007 T01610150





000
SAUS44 KLIX 192011 COR
MTRBVE
SPECI KBVE 192008Z AUTO 00000KT 2SM -RA BR SCT004 BKN016 OVC024
16/16 A3003 RMK AO2 P0001 T01560156





000
SAUS44 KLIX 192010 COR
MTRBVE
SPECI KBVE 192008Z AUTO 00000KT 2SM -RA BR SCT004 BKN016 OVC024
16/16 A3003 RMK AO2 P0001 T01560156





000
SAUS44 KLIX 192010 COR
MTRBVE
SPECI KBVE 192008Z AUTO 00000KT 2SM -RA BR SCT004 BKN016 OVC024
16/16 A3003 RMK AO2 P0001 T01560156





000
SAUS44 KLIX 191953
MTRBVE
METAR KBVE 191951Z AUTO 13004KT 2SM -RA BR BKN004 BKN014 OVC021
16/15 A3003 RMK AO2 SLP169 P0012 T01560150





000
SAUS44 KLIX 191953
MTRBVE
METAR KBVE 191951Z AUTO 13004KT 2SM -RA BR BKN004 BKN014 OVC021
16/15 A3003 RMK AO2 SLP169 P0012 T01560150





000
SAUS44 KLIX 191944
MTRBVE
SPECI KBVE 191943Z AUTO 14004KT 1 1/2SM RA BR BKN006 BKN014 OVC030
16/16 A3003 RMK AO2 P0011 T01560156





000
SAUS44 KLIX 191944
MTRBVE
SPECI KBVE 191943Z AUTO 14004KT 1 1/2SM RA BR BKN006 BKN014 OVC030
16/16 A3003 RMK AO2 P0011 T01560156





000
SAUS44 KLIX 191937
MTRBVE
SPECI KBVE 191936Z AUTO 09004KT 1 1/4SM +RA BR SCT006 BKN021 OVC034
16/16 A3003 RMK AO2 P0006 T01560156





000
SAUS44 KLIX 191937
MTRBVE
SPECI KBVE 191936Z AUTO 09004KT 1 1/4SM +RA BR SCT006 BKN021 OVC034
16/16 A3003 RMK AO2 P0006 T01560156





000
SAUS44 KLIX 191852
MTRBVE
METAR KBVE 191851Z AUTO 08010KT 2SM -RA BR FEW007 BKN030 OVC041
14/14 A3004 RMK AO2 RAE32B37 SLP173 P0002 T01440139





000
SAUS44 KLIX 191841
MTRBVE
SPECI KBVE 191840Z AUTO 08009KT 2 1/2SM -RA BR FEW009 BKN028 OVC047
15/14 A3005 RMK AO2 RAE32B37 P0002 T01500139





000
SAUS44 KLIX 191835
MTRBVE
SPECI KBVE 191834Z AUTO 08010KT 3SM BR SCT010 BKN028 OVC050 15/14
A3005 RMK AO2 RAE32 P0002 T01500139





000
SAUS44 KLIX 191827
MTRBVE
SPECI KBVE 191825Z AUTO 07010KT 3SM -RA BR BKN010 BKN030 OVC065
15/14 A3006 RMK AO2 P0002 T01500139





000
SAUS44 KLIX 191752
MTRBVE
METAR KBVE 191751Z AUTO 07012KT 8SM -RA FEW038 SCT046 OVC060 14/13
A3008 RMK AO2 RAE08B48 SLP185 P0000 60010 T01440133 10161 20139
58018





000
SAUS44 KLIX 191653
MTRBVE
METAR KBVE 191651Z AUTO 06009KT 4SM -RA BR SCT038 BKN047 OVC060
14/13 A3011 RMK AO2 SLP197 P0009 T01390133





000
SAUS44 KLIX 191648
MTRBVE
SPECI KBVE 191647Z AUTO 06010KT 4SM -RA BR BKN048 OVC055 14/13 A3012
RMK AO2 P0008





000
SAUS44 KLIX 191641
MTRBVE
SPECI KBVE 191640Z AUTO 06011KT 2 1/2SM -RA BR BKN050 BKN055 OVC070
14/13 A3012 RMK AO2 P0008 T01390133





000
SAUS44 KLIX 191613
MTRBVE
SPECI KBVE 191612Z AUTO 06010KT 1 3/4SM RA BR FEW026 SCT043 OVC060
14/13 A3013 RMK AO2 P0001 T01390128





000
SAUS44 KLIX 191556 COR
MTRBVE
METAR KBVE 191551Z AUTO 05012G17KT 4SM -RA BR FEW027 BKN042 OVC060
14/13 A3013 RMK AO2 RAB27 SLP203 P0001 T01440128





000
SAUS44 KLIX 191553 COR
MTRBVE
METAR KBVE 191551Z AUTO 05012G17KT 4SM -RA BR FEW027 BKN042 OVC060
14/13 A3013 RMK AO2 RAB27 SLP203 P0001 T01440128





000
SAUS44 KLIX 191539
MTRBVE
SPECI KBVE 191538Z AUTO 05011KT 4SM -RA BR FEW027 OVC036 15/13 A3013
RMK AO2 RAB27 P0000 T01500133





000
SAUS44 KLIX 191452
MTRBVE
METAR KBVE 191451Z AUTO 04007KT 10SM BKN023 OVC033 16/13 A3013 RMK
AO2 SLP201 T01560133 51023





000
SAUS44 KLIX 191352
MTRBVE
METAR KBVE 191351Z AUTO 06008KT 10SM BKN023 OVC035 16/14 A3011 RMK
AO2 SLP196 T01610139





000
SAUS44 KLIX 191321
MTRBVE
SPECI KBVE 191320Z AUTO 06008KT 10SM BKN025 BKN030 OVC035 16/14
A3010 RMK AO2 T01560139





000
SAUS44 KLIX 191252
MTRBVE
METAR KBVE 191251Z AUTO 07007KT 10SM SCT027 BKN034 OVC041 16/14
A3009 RMK AO2 SLP188 T01610144





000
SAUS44 KLIX 191152
MTRBVE
METAR KBVE 191151Z AUTO 07008KT 10SM FEW036 BKN100 BKN120 16/14
A3006 RMK AO2 SLP178 60000 T01560139 10172 20150 55001





000
SAUS44 KLIX 191052
MTRBVE
METAR KBVE 191051Z AUTO 05007KT 8SM BKN090 15/14 A3005 RMK AO2
SLP176 T01500144





000
SAUS44 KLIX 190952
MTRBVE
METAR KBVE 190951Z AUTO 34008KT 10SM OVC095 16/13 A3006 RMK AO2
SLP178 T01610133





000
SAUS44 KLIX 190952
MTRBVE
METAR KBVE 190951Z AUTO 34008KT 10SM OVC095 16/13 A3006 RMK AO2
SLP178 T01610133





000
SAUS44 KLIX 190854 COR
MTRBVE
METAR KBVE 190851Z AUTO 10007KT 10SM SCT028 SCT036 SCT043 17/15
A3006 RMK AO2 RAB35E44 SLP178 P0000 60000 T01670150 58020





000
SAUS44 KLIX 190853 COR
MTRBVE
METAR KBVE 190851Z AUTO 10007KT 10SM SCT028 SCT036 SCT043 17/15
A3006 RMK AO2 RAB35E44 SLP178 P0000 60000 T01670150 58020





000
SAUS44 KLIX 190852
MTRBVE
METAR KBVE 190851Z AUTO 10007KT 10SM SCT028 SCT036 SCT043 17/15
A3006 RMK AO2 RAB35E44 SLP178 P0000 60000 T01670150 58020





000
SAUS44 KLIX 190752
MTRBVE
METAR KBVE 190751Z AUTO 03005KT 10SM BKN027 OVC070 15/14 A3010 RMK
AO2 SLP191 T01500139





000
SAUS44 KLIX 190715
MTRBVE
SPECI KBVE 190714Z AUTO 03005KT 10SM BKN029 OVC100 16/14 A3010 RMK
AO2 T01560144





000
SAUS44 KLIX 190652
MTRBVE
METAR KBVE 190651Z AUTO 08004KT 10SM OVC100 16/14 A3010 RMK AO2
SLP194 T01560144





000
SAUS44 KLIX 190552
MTRBVE
METAR KBVE 190551Z AUTO 06003KT 10SM OVC110 15/14 A3012 RMK AO2
SLP199 T01500144 10172 20150 402060128 58003





000
SAUS44 KLIX 190456 COR
MTRBVE
METAR KBVE 190451Z AUTO 06005KT 10SM FEW027 BKN035 BKN120 16/14
A3013 RMK AO2 SLP204 T01560144





000
SAUS44 KLIX 190453 COR
MTRBVE
METAR KBVE 190451Z AUTO 06005KT 10SM FEW027 BKN035 BKN120 16/14
A3013 RMK AO2 SLP204 T01560144





000
SAUS44 KLIX 190352
MTRBVE
METAR KBVE 190351Z AUTO 06004KT 10SM OVC120 16/14 A3013 RMK AO2
SLP203 T01560144





000
SAUS44 KLIX 190352
MTRBVE
METAR KBVE 190351Z AUTO 06004KT 10SM OVC120 16/14 A3013 RMK AO2
SLP203 T01560144





000
SAUS44 KLIX 190252
MTRBVE
METAR KBVE 190251Z AUTO 00000KT 10SM BKN120 16/14 A3013 RMK AO2
SLP201 T01610144 51008





000
SAUS44 KLIX 190152
MTRBVE
METAR KBVE 190151Z AUTO 11003KT 10SM FEW120 17/14 A3013 RMK AO2
SLP201 T01670144





000
SAUS44 KLIX 190152
MTRBVE
METAR KBVE 190151Z AUTO 11003KT 10SM FEW120 17/14 A3013 RMK AO2
SLP201 T01670144





000
SAUS44 KLIX 190052
MTRBVE
METAR KBVE 190051Z AUTO 08003KT 10SM SCT110 16/14 A3012 RMK AO2
SLP199 T01610139





000
SAUS44 KLIX 182352
MTRBVE
METAR KBVE 182351Z AUTO 11003KT 10SM BKN100 OVC120 17/14 A3010 RMK
AO2 SLP193 T01670139 10206 20167 55000





000
SAUS44 KLIX 182253
MTRBVE
METAR KBVE 182251Z AUTO 12004KT 10SM SCT120 18/14 A3010 RMK AO2
SLP191 T01830139





000
SAUS44 KLIX 182152
MTRBVE
METAR KBVE 182151Z AUTO 11005KT 10SM BKN110 20/14 A3010 RMK AO2
SLP193 T02000139





000
SAUS44 KLIX 182052
MTRBVE
METAR KBVE 182051Z AUTO 11007KT 10SM FEW110 21/13 A3010 RMK AO2
SLP193 T02060133 56021





000
SAUS44 KLIX 181952
MTRBVE
METAR KBVE 181951Z AUTO 10008KT 10SM CLR 19/14 A3011 RMK AO2 SLP194
T01890144





000
SAUS44 KLIX 181852
MTRBVE
METAR KBVE 181851Z AUTO 07009KT 10SM CLR 19/14 A3013 RMK AO2 SLP203
T01890139





000
SAUS44 KLIX 181756
MTRBVE
METAR KBVE 181751Z AUTO 07007KT 10SM CLR 17/13 A3017 RMK AO2 SLP215
T01720133 10178 20128 58013





000
SAUS44 KLIX 181754
MTRBVE
METAR KBVE 181651Z AUTO 07008KT 10SM CLR 17/13 A3019 RMK AO2 SLP224
T01720128





000
SAUS44 KLIX 181352
MTRBVE
METAR KBVE 181351Z AUTO 06004KT 10SM CLR 14/12 A3020 RMK AO2 SLP225
T01390117





000
SAUS44 KLIX 181352
MTRBVE
METAR KBVE 181351Z AUTO 06004KT 10SM CLR 14/12 A3020 RMK AO2 SLP225
T01390117





000
SAUS44 KLIX 181252
MTRBVE
METAR KBVE 181251Z AUTO 06004KT 10SM CLR 13/11 A3018 RMK AO2 SLP219
T01280111





000
SAUS44 KLIX 181252
MTRBVE
METAR KBVE 181251Z AUTO 06004KT 10SM CLR 13/11 A3018 RMK AO2 SLP219
T01280111





000
SAUS44 KLIX 181154 COR
MTRBVE
METAR KBVE 181151Z AUTO 04005KT 10SM CLR 13/11 A3017 RMK AO2 SLP215
T01330111 10133 20128 53003





000
SAUS44 KLIX 181153 COR
MTRBVE
METAR KBVE 181151Z AUTO 04005KT 10SM CLR 13/11 A3017 RMK AO2 SLP215
T01330111 10133 20128 53003





000
SAUS44 KLIX 181152
MTRBVE
METAR KBVE 181151Z AUTO 04005KT 10SM CLR 13/11 A3017 RMK AO2 SLP215
T01330111 10133 20128 53003





000
SAUS44 KLIX 181152
MTRBVE
METAR KBVE 181151Z AUTO 04005KT 10SM CLR 13/11 A3017 RMK AO2 SLP215
T01330111 10133 20128 53003





000
SAUS44 KLIX 181052
MTRBVE
METAR KBVE 181051Z AUTO 03005KT 10SM CLR 13/11 A3016 RMK AO2 SLP212
T01330106





000
SAUS44 KLIX 181052
MTRBVE
METAR KBVE 181051Z AUTO 03005KT 10SM CLR 13/11 A3016 RMK AO2 SLP212
T01330106





000
SAUS44 KLIX 180952
MTRBVE
METAR KBVE 180951Z AUTO 04003KT 10SM CLR 13/11 A3016 RMK AO2 SLP213
T01280106





000
SAUS44 KLIX 180852
MTRBVE
METAR KBVE 180851Z AUTO 06005KT 10SM CLR 13/10 A3016 RMK AO2 SLP212
T01280100 58005





000
SAUS44 KLIX 180852
MTRBVE
METAR KBVE 180851Z AUTO 06005KT 10SM CLR 13/10 A3016 RMK AO2 SLP212
T01280100 58005





000
SAUS44 KLIX 180752
MTRBVE
METAR KBVE 180751Z AUTO 10005KT 10SM CLR 13/10 A3016 RMK AO2 SLP214
T01280100





000
SAUS44 KLIX 180752
MTRBVE
METAR KBVE 180751Z AUTO 10005KT 10SM CLR 13/10 A3016 RMK AO2 SLP214
T01280100





000
SAUS44 KLIX 180652
MTRBVE
METAR KBVE 180651Z AUTO 06005KT 10SM CLR 13/10 A3018 RMK AO2 SLP218
T01280100





000
SAUS44 KLIX 180552
MTRBVE
METAR KBVE 180551Z AUTO 06004KT 10SM CLR 13/09 A3018 RMK AO2 SLP218
T01280094 10128 20117 401610111 58009





000
SAUS44 KLIX 180452
MTRBVE
METAR KBVE 180451Z AUTO 03003KT 10SM CLR 13/10 A3020 RMK AO2 SLP228
T01280100





000
SAUS44 KLIX 180352
MTRBVE
METAR KBVE 180351Z AUTO 06005KT 10SM CLR 12/09 A3020 RMK AO2 SLP226
T01220094





000
SAUS44 KLIX 180352
MTRBVE
METAR KBVE 180351Z AUTO 06005KT 10SM CLR 12/09 A3020 RMK AO2 SLP226
T01220094





000
SAUS44 KLIX 180252
MTRBVE
METAR KBVE 180251Z AUTO 07003KT 10SM CLR 12/09 A3020 RMK AO2 SLP227
T01220094 58001





000
SAUS44 KLIX 180152
MTRBVE
METAR KBVE 180151Z AUTO 08004KT 10SM CLR 12/09 A3021 RMK AO2 SLP229
T01170094





000
SAUS44 KLIX 180152
MTRBVE
METAR KBVE 180151Z AUTO 08004KT 10SM CLR 12/09 A3021 RMK AO2 SLP229
T01170094





000
SAUS44 KLIX 180052
MTRBVE
METAR KBVE 180051Z AUTO 07003KT 10SM CLR 12/09 A3021 RMK AO2 SLP229
T01220094





000
SAUS44 KLIX 172352
MTRBVE
METAR KBVE 172351Z AUTO 05003KT 10SM CLR 12/09 A3021 RMK AO2 SLP228
T01220094 10161 20122 55000





000
SAUS44 KLIX 172252
MTRBVE
METAR KBVE 172251Z AUTO 01004KT 10SM CLR 13/09 A3020 RMK AO2 SLP225
T01330094





000
SAUS44 KLIX 172152
MTRBVE
METAR KBVE 172151Z AUTO 03006KT 10SM CLR 14/09 A3019 RMK AO2 SLP224
T01440089





000
SAUS44 KLIX 172152
MTRBVE
METAR KBVE 172151Z AUTO 03006KT 10SM CLR 14/09 A3019 RMK AO2 SLP224
T01440089





000
SAUS44 KLIX 172053
MTRBVE
METAR KBVE 172051Z AUTO 36005KT 10SM CLR 15/09 A3021 RMK AO2 SLP228
T01500089 55009





000
SAUS44 KLIX 171952
MTRBVE
METAR KBVE 171951Z AUTO 04005KT 10SM CLR 16/09 A3019 RMK AO2 SLP223
T01560089





000
SAUS44 KLIX 171852
MTRBVE
METAR KBVE 171851Z AUTO 02005KT 10SM CLR 16/09 A3022 RMK AO2 SLP232
T01560089





000
SAUS44 KLIX 171752
MTRBVE
METAR KBVE 171751Z AUTO 06007KT 10SM CLR 16/09 A3023 RMK AO2 SLP237
T01560094 10156 20111 58018





000
SAUS44 KLIX 171652
MTRBVE
METAR KBVE 171651Z AUTO 05005KT 10SM CLR 16/09 A3027 RMK AO2 SLP251
T01560089





000
SAUS44 KLIX 171552
MTRBVE
METAR KBVE 171551Z AUTO 04005KT 10SM CLR 15/08 A3029 RMK AO2 SLP255
T01500083





000
SAUS44 KLIX 171552
MTRBVE
METAR KBVE 171551Z AUTO 04005KT 10SM CLR 15/08 A3029 RMK AO2 SLP255
T01500083





000
SAUS44 KLIX 171452
MTRBVE
METAR KBVE 171451Z AUTO 03005KT 10SM CLR 14/08 A3029 RMK AO2 SLP255
T01390083 53009





000
SAUS44 KLIX 171352
MTRBVE
METAR KBVE 171351Z AUTO 03005KT 10SM CLR 12/08 A3027 RMK AO2 SLP249
T01220083





    US Dept of Commerce
    National Oceanic and Atmospheric Administration
    National Weather Service
    1325 East West Highway
    Silver Spring, MD 20910
    Page Author: NWS Internet Services Team
Disclaimer
Information Quality
Credits
Glossary
Privacy Policy
Freedom of Information Act (FOIA)
About Us
Career Opportunities